Salinas Da Margarida, Brazil
Current Conditions -  °F | °C
As of 11:00 PM on Saturday 22 Nov 2014 (Local Time) from SBSV Reporting Station
Broken Clouds Broken Clouds  
Wind Chill: 75°   Ceiling: 7000
Heat Index: 75°   Visibility: 6mi
Dew Point: 72°   Wind: 5mph
Humidity: 89%   Direction: 80°E
Pressure: 29.94"   Gusts: NA
Location:  12.88°S, 38.76°W
Report Text: SBSV 230200Z 08004KT 9999 SCT017 FEW020TCU BKN070 24/22 Q1014
Loading
Personal Weather Stations






























Interactive Weather Map New forecast layout! Learn more

10-Day Weather Forecast

Advertisements
Track Severe Weather on mobile